KBBW/BBW METAR and TAF weather

Enter ICAO airport designator
Station Type Date Time Source
KBBW METAR 2021/05/15 01:53 UTC NOAA

KBBW 150153Z AUTO 17005KT 10SM CLR 16/12 A3004 RMK AO2 SLP165 T01610122


Station Type Date Time Source
KBBW Decoded METAR 2021/05/15 01:53 UTC NOAA

BROKEN BOW MUNICIPAL AIRPORT, NE, United States (KBBW) 41-26N 099-38W
May 14, 2021 - 09:53 PM EDT / 2021.05.15 0153 UTC
Wind: from the S (170 degrees) at 6 MPH (5 KT):0
Visibility: 10 mile(s):0
Sky conditions: clear
Temperature: 61.0 F (16.1 C)
Dew Point: 54.0 F (12.2 C)
Relative Humidity: 77%
Pressure (altimeter): 30.04 in. Hg (1017 hPa)
ob: KBBW 150153Z AUTO 17005KT 10SM CLR 16/12 A3004 RMK AO2 SLP165 T01610122
cycle: 2

Station Type Date Time Source
KBBW TAF UTC NOAA

Error!

Example: see airport list